createdAt,value
2023-06-18T00:00:14.457Z,99580.06
2023-06-18T00:02:42.319Z,99569.94
2023-06-18T00:05:09.785Z,99574.66
2023-06-18T00:07:37.178Z,99576.00
2023-06-18T00:10:05.614Z,99571.78
2023-06-18T00:12:33.010Z,99564.09
2023-06-18T00:15:00.547Z,99568.31
2023-06-18T00:17:28.225Z,99571.09
2023-06-18T00:19:55.618Z,99574.91
2023-06-18T00:22:24.236Z,99566.16
2023-06-18T00:24:51.901Z,99561.69
2023-06-18T00:27:21.220Z,99562.28
2023-06-18T00:29:48.618Z,99561.31
2023-06-18T00:32:16.346Z,99562.59
2023-06-18T00:34:43.780Z,99567.09
2023-06-18T00:37:12.085Z,99571.63
2023-06-18T00:39:39.872Z,99571.69
2023-06-18T00:42:08.800Z,99575.50
2023-06-18T00:44:41.105Z,99575.97
2023-06-18T00:47:12.912Z,99574.31
2023-06-18T00:49:43.715Z,99578.62
2023-06-18T00:52:13.666Z,99575.38
2023-06-18T00:54:41.994Z,99573.47
2023-06-18T00:57:09.677Z,99565.81
2023-06-18T00:59:38.598Z,99568.81
2023-06-18T01:02:06.419Z,99567.41
2023-06-18T01:04:34.256Z,99568.97
2023-06-18T01:07:03.859Z,99564.88
2023-06-18T01:09:31.798Z,99565.00
2023-06-18T01:12:01.489Z,99568.31
2023-06-18T01:14:29.806Z,99568.50
2023-06-18T01:16:58.927Z,99564.56
2023-06-18T01:19:47.528Z,99569.75
2023-06-18T01:22:27.605Z,99561.47
2023-06-18T01:25:03.328Z,99564.13
2023-06-18T01:27:34.978Z,99569.50
2023-06-18T01:30:02.679Z,99569.00
2023-06-18T01:32:30.727Z,99571.94
2023-06-18T01:34:58.504Z,99570.59
2023-06-18T01:37:49.597Z,99573.03
2023-06-18T01:40:26.387Z,99577.50
2023-06-18T01:42:57.011Z,99580.44
2023-06-18T01:45:30.211Z,99583.16
2023-06-18T01:48:00.370Z,99579.44
2023-06-18T01:50:28.075Z,99585.28
2023-06-18T01:52:55.724Z,99585.03
2023-06-18T01:55:23.180Z,99581.75
2023-06-18T01:57:51.010Z,99588.03
2023-06-18T02:00:19.602Z,99589.22
2023-06-18T02:02:48.155Z,99589.37
2023-06-18T02:05:15.628Z,99589.81
2023-06-18T02:07:43.057Z,99591.63
2023-06-18T02:10:11.186Z,99598.19
2023-06-18T02:12:38.541Z,99593.03
2023-06-18T02:15:08.915Z,99595.19
2023-06-18T02:17:36.636Z,99586.88
2023-06-18T02:20:04.873Z,99595.44
2023-06-18T02:22:32.637Z,99589.53
2023-06-18T02:25:00.032Z,99605.13
2023-06-18T02:27:27.713Z,99594.81
2023-06-18T02:29:55.084Z,99590.63
2023-06-18T02:32:22.510Z,99595.88
2023-06-18T02:34:50.190Z,99597.97
2023-06-18T02:37:17.708Z,99599.44
2023-06-18T02:39:45.067Z,99607.66
2023-06-18T02:42:13.114Z,99608.88
2023-06-18T02:44:43.664Z,99608.56
2023-06-18T02:47:11.153Z,99608.97
2023-06-18T02:49:38.801Z,99612.59
2023-06-18T02:52:07.600Z,99618.06
2023-06-18T02:54:35.074Z,99621.66
2023-06-18T02:57:02.814Z,99619.50
2023-06-18T02:59:30.323Z,99626.34
2023-06-18T03:01:57.941Z,99628.88
2023-06-18T03:04:25.694Z,99630.69
2023-06-18T03:06:54.699Z,99623.78
2023-06-18T03:09:22.109Z,99628.94
2023-06-18T03:11:50.425Z,99629.53
2023-06-18T03:14:18.139Z,99631.66
2023-06-18T03:16:46.113Z,99629.59
2023-06-18T03:19:13.865Z,99634.97
2023-06-18T03:21:41.882Z,99639.03
2023-06-18T03:24:09.615Z,99629.41
2023-06-18T03:26:37.331Z,99627.84
2023-06-18T03:29:04.892Z,99632.94
2023-06-18T03:31:33.711Z,99636.19
2023-06-18T03:34:02.610Z,99635.19
2023-06-18T03:36:30.596Z,99634.87
2023-06-18T03:38:58.052Z,99631.19
2023-06-18T03:41:26.830Z,99635.03
2023-06-18T03:43:54.256Z,99634.97
2023-06-18T03:46:21.927Z,99637.72
2023-06-18T03:48:50.438Z,99639.00
2023-06-18T03:51:18.030Z,99640.19
2023-06-18T03:53:46.062Z,99639.16
2023-06-18T03:56:13.971Z,99633.41
2023-06-18T03:58:41.592Z,99640.06
2023-06-18T04:01:09.550Z,99636.75
2023-06-18T04:03:40.850Z,99634.38
2023-06-18T04:06:08.324Z,99637.91
2023-06-18T04:08:35.889Z,99626.06
2023-06-18T04:11:03.661Z,99635.94
2023-06-18T04:13:31.792Z,99637.22
2023-06-18T04:15:59.991Z,99635.56
2023-06-18T04:18:27.819Z,99636.53
2023-06-18T04:20:55.265Z,99640.84
2023-06-18T04:23:22.949Z,99639.97
2023-06-18T04:25:50.618Z,99642.75
2023-06-18T04:28:18.382Z,99642.91
2023-06-18T04:30:45.790Z,99653.03
2023-06-18T04:33:13.643Z,99644.25
2023-06-18T04:35:42.495Z,99639.88
2023-06-18T04:38:12.147Z,99631.78
2023-06-18T04:40:40.212Z,99627.66
2023-06-18T04:43:07.608Z,99622.69
2023-06-18T04:45:35.261Z,99630.00
2023-06-18T04:48:04.199Z,99632.00
2023-06-18T04:50:33.173Z,99629.75
2023-06-18T04:53:01.122Z,99628.78
2023-06-18T04:55:29.483Z,99627.66
2023-06-18T04:57:57.237Z,99630.66
2023-06-18T05:00:24.881Z,99625.06
2023-06-18T05:02:52.925Z,99620.84
2023-06-18T05:05:20.452Z,99620.13
2023-06-18T05:07:48.151Z,99623.78
2023-06-18T05:10:15.908Z,99625.16
2023-06-18T05:12:43.370Z,99631.00
2023-06-18T05:15:10.832Z,99627.72
2023-06-18T05:17:38.749Z,99636.91
2023-06-18T05:20:07.672Z,99635.44
2023-06-18T05:22:35.280Z,99630.41
2023-06-18T05:25:05.281Z,99641.31
2023-06-18T05:27:33.638Z,99650.41
2023-06-18T05:30:01.332Z,99636.00
2023-06-18T05:32:30.340Z,99651.44
2023-06-18T05:34:58.292Z,99649.97
2023-06-18T05:37:25.868Z,99641.16
2023-06-18T05:39:53.551Z,99643.06
2023-06-18T05:42:22.008Z,99643.16
2023-06-18T05:44:49.476Z,99651.81
2023-06-18T05:47:17.259Z,99652.06
2023-06-18T05:49:44.986Z,99663.19
2023-06-18T05:52:12.422Z,99657.22
2023-06-18T05:54:40.785Z,99659.06
2023-06-18T05:57:08.157Z,99651.53
2023-06-18T05:59:35.644Z,99662.72
2023-06-18T06:02:06.318Z,99655.44
2023-06-18T06:04:34.048Z,99651.78
2023-06-18T06:07:01.423Z,99653.94
2023-06-18T06:09:28.879Z,99660.47
2023-06-18T06:11:57.031Z,99665.69
2023-06-18T06:14:24.584Z,99664.44
2023-06-18T06:16:58.416Z,99662.53
2023-06-18T06:19:26.689Z,99662.75
2023-06-18T06:21:54.147Z,99668.06
2023-06-18T06:24:22.600Z,99657.41
2023-06-18T06:26:50.281Z,99652.38
2023-06-18T06:29:18.247Z,99658.72
2023-06-18T06:31:45.884Z,99645.31
2023-06-18T06:34:13.750Z,99652.00
2023-06-18T06:36:41.788Z,99653.06
2023-06-18T06:39:10.052Z,99656.34
2023-06-18T06:41:37.710Z,99654.88
2023-06-18T06:44:05.390Z,99652.50
2023-06-18T06:46:33.834Z,99664.75
2023-06-18T06:49:08.202Z,99661.62
2023-06-18T06:51:36.551Z,99654.50
2023-06-18T06:54:05.715Z,99657.19
2023-06-18T06:56:33.298Z,99646.53
2023-06-18T06:59:00.962Z,99649.25
2023-06-18T07:01:28.716Z,99644.81
2023-06-18T07:03:56.227Z,99653.38
2023-06-18T07:06:23.613Z,99650.72
2023-06-18T07:08:51.908Z,99652.59
2023-06-18T07:11:19.294Z,99641.06
2023-06-18T07:13:46.822Z,99656.84
2023-06-18T07:16:14.498Z,99641.88
2023-06-18T07:18:41.900Z,99640.47
2023-06-18T07:21:09.303Z,99637.66
2023-06-18T07:23:37.125Z,99633.44
2023-06-18T07:26:04.663Z,99630.75
2023-06-18T07:28:32.062Z,99629.28
2023-06-18T07:30:59.746Z,99648.19
2023-06-18T07:33:27.134Z,99650.37
2023-06-18T07:35:54.562Z,99648.41
2023-06-18T07:38:23.557Z,99634.63
2023-06-18T07:40:51.421Z,99631.91
2023-06-18T07:43:18.770Z,99628.03
2023-06-18T07:45:46.407Z,99617.88
2023-06-18T07:48:13.786Z,99613.56
2023-06-18T07:50:41.496Z,99623.84
2023-06-18T07:53:09.124Z,99625.22
2023-06-18T07:55:36.533Z,99633.47
2023-06-18T07:58:03.953Z,99638.06
2023-06-18T08:00:31.658Z,99645.38
2023-06-18T08:02:59.356Z,99641.75
2023-06-18T08:05:26.848Z,99623.25
2023-06-18T08:07:54.242Z,99629.91
2023-06-18T08:10:22.091Z,99629.88
2023-06-18T08:12:49.657Z,99636.06
2023-06-18T08:15:17.165Z,99627.84
2023-06-18T08:17:44.838Z,99624.81
2023-06-18T08:20:12.561Z,99632.38
2023-06-18T08:22:39.985Z,99631.59
2023-06-18T08:25:07.995Z,99641.34
2023-06-18T08:27:35.799Z,99637.28
2023-06-18T08:30:06.916Z,99646.78
2023-06-18T08:32:34.608Z,99635.06
2023-06-18T08:35:02.406Z,99634.87
2023-06-18T08:37:31.194Z,99627.91
2023-06-18T08:39:58.841Z,99634.13
2023-06-18T08:42:26.213Z,99623.84
2023-06-18T08:44:54.579Z,99625.38
2023-06-18T08:47:22.771Z,99614.97
2023-06-18T08:49:51.109Z,99613.66
2023-06-18T08:52:19.622Z,99619.47
2023-06-18T08:54:49.107Z,99613.72
2023-06-18T08:57:46.589Z,99613.03
2023-06-18T09:00:14.404Z,99610.22
2023-06-18T09:02:42.342Z,99626.87
2023-06-18T09:05:11.779Z,99611.19
2023-06-18T09:07:39.831Z,99608.25
2023-06-18T09:10:07.439Z,99607.91
2023-06-18T09:12:34.843Z,99613.37
2023-06-18T09:15:03.280Z,99613.03
2023-06-18T09:17:31.022Z,99616.28
2023-06-18T09:19:58.457Z,99617.75
2023-06-18T09:22:26.469Z,99606.53
2023-06-18T09:24:58.924Z,99615.00
2023-06-18T09:27:33.548Z,99621.91
2023-06-18T09:30:01.040Z,99608.44
2023-06-18T09:32:29.068Z,99605.06
2023-06-18T09:34:56.536Z,99604.31
2023-06-18T09:37:24.068Z,99599.44
2023-06-18T09:39:54.713Z,99606.00
2023-06-18T09:42:29.052Z,99604.06
2023-06-18T09:44:56.788Z,99606.25
2023-06-18T09:47:24.386Z,99606.91
2023-06-18T09:49:52.296Z,99597.19
2023-06-18T09:52:20.417Z,99598.97
2023-06-18T09:54:48.452Z,99603.63
2023-06-18T09:57:17.485Z,99606.03
2023-06-18T09:59:45.209Z,99592.13
2023-06-18T10:02:15.825Z,99600.94
2023-06-18T10:04:43.531Z,99619.09
2023-06-18T10:07:17.056Z,99604.34
2023-06-18T10:09:47.058Z,99602.13
2023-06-18T10:12:16.364Z,99609.47
2023-06-18T10:14:43.770Z,99608.34
2023-06-18T10:17:25.110Z,99609.78
2023-06-18T10:20:02.189Z,99617.38
2023-06-18T10:22:30.458Z,99612.97
2023-06-18T10:25:03.613Z,99611.56
2023-06-18T10:27:31.320Z,99610.56
2023-06-18T10:29:59.007Z,99608.38
2023-06-18T10:32:29.640Z,99612.25
2023-06-18T10:34:58.894Z,99615.69
2023-06-18T10:37:27.471Z,99604.09
2023-06-18T10:39:55.170Z,99608.12
2023-06-18T10:42:22.849Z,99605.69
2023-06-18T10:44:50.125Z,99629.34
2023-06-18T10:47:21.687Z,99618.75
2023-06-18T10:50:01.176Z,99614.44
2023-06-18T10:52:32.121Z,99606.91
2023-06-18T10:55:09.413Z,99617.75
2023-06-18T10:57:38.961Z,99629.09
2023-06-18T11:00:16.280Z,99630.41
2023-06-18T11:02:43.873Z,99629.00
2023-06-18T11:05:35.387Z,99649.72
2023-06-18T11:08:06.850Z,99647.19
2023-06-18T11:10:42.008Z,99647.50
2023-06-18T11:13:10.621Z,99640.34
2023-06-18T11:15:59.395Z,99645.22
2023-06-18T11:18:28.153Z,99649.22
2023-06-18T11:20:56.577Z,99641.63
2023-06-18T11:23:24.429Z,99637.78
2023-06-18T11:25:51.988Z,99640.63
2023-06-18T11:28:19.762Z,99633.44
2023-06-18T11:30:52.757Z,99635.50
2023-06-18T11:33:22.578Z,99620.84
2023-06-18T11:35:50.656Z,99620.13
2023-06-18T11:38:21.497Z,99629.47
2023-06-18T11:40:51.092Z,99622.94
2023-06-18T11:43:19.079Z,99630.47
2023-06-18T11:45:50.001Z,99625.66
2023-06-18T11:48:19.217Z,99622.63
2023-06-18T11:50:51.423Z,99629.50
2023-06-18T11:53:19.086Z,99627.00
2023-06-18T11:55:46.559Z,99612.69
2023-06-18T11:58:16.944Z,99623.31
2023-06-18T12:00:45.164Z,99623.81
2023-06-18T12:03:13.524Z,99617.63
2023-06-18T12:05:41.241Z,99607.88
2023-06-18T12:08:09.904Z,99600.00
2023-06-18T12:10:41.436Z,99603.53
2023-06-18T12:13:29.281Z,99598.22
2023-06-18T12:16:06.775Z,99591.03
2023-06-18T12:18:39.093Z,99604.47
2023-06-18T12:21:07.059Z,99602.13
2023-06-18T12:23:36.861Z,99588.28
2023-06-18T12:26:04.696Z,99598.19
2023-06-18T12:28:34.748Z,99598.94
2023-06-18T12:31:08.390Z,99601.78
2023-06-18T12:33:39.455Z,99598.56
2023-06-18T12:36:06.863Z,99589.84
2023-06-18T12:38:46.879Z,99587.81
2023-06-18T12:41:24.307Z,99584.34
2023-06-18T12:43:53.496Z,99584.72
2023-06-18T12:46:27.520Z,99579.09
2023-06-18T12:48:56.138Z,99591.28
2023-06-18T12:51:42.670Z,99582.59
2023-06-18T12:54:17.090Z,99591.34
2023-06-18T12:57:02.765Z,99577.38
2023-06-18T12:59:30.134Z,99583.25
2023-06-18T13:01:57.821Z,99577.62
2023-06-18T13:04:28.214Z,99576.59
2023-06-18T13:06:55.939Z,99570.91
2023-06-18T13:09:23.786Z,99581.94
2023-06-18T13:11:51.423Z,99574.97
2023-06-18T13:14:30.606Z,99579.59
2023-06-18T13:17:02.803Z,99576.22
2023-06-18T13:19:40.417Z,99576.31
2023-06-18T13:22:11.458Z,99576.78
2023-06-18T13:24:38.887Z,99576.06
2023-06-18T13:27:06.737Z,99577.00
2023-06-18T13:29:34.387Z,99574.00
2023-06-18T13:32:04.270Z,99569.25
2023-06-18T13:34:31.811Z,99572.75
2023-06-18T13:36:59.428Z,99571.16
2023-06-18T13:39:27.037Z,99569.56
2023-06-18T13:41:54.401Z,99580.50
2023-06-18T13:44:22.021Z,99567.97
2023-06-18T13:46:49.481Z,99558.47
2023-06-18T13:49:17.749Z,99559.31
2023-06-18T13:51:45.448Z,99556.28
2023-06-18T13:54:12.802Z,99561.97
2023-06-18T13:56:40.375Z,99558.44
2023-06-18T13:59:08.047Z,99556.66
2023-06-18T14:01:35.460Z,99567.28
2023-06-18T14:04:06.416Z,99557.03
2023-06-18T14:06:39.085Z,99559.75
2023-06-18T14:09:07.088Z,99568.50
2023-06-18T14:11:34.579Z,99564.78
2023-06-18T14:14:02.088Z,99559.06
2023-06-18T14:16:32.017Z,99564.31
2023-06-18T14:18:59.532Z,99559.00
2023-06-18T14:21:26.952Z,99558.06
2023-06-18T14:23:55.174Z,99569.34
2023-06-18T14:26:22.701Z,99559.75
2023-06-18T14:28:50.136Z,99554.25
2023-06-18T14:31:17.855Z,99541.69
2023-06-18T14:33:50.256Z,99546.53
2023-06-18T14:36:27.167Z,99537.59
2023-06-18T14:38:54.573Z,99547.94
2023-06-18T14:41:21.935Z,99549.28
2023-06-18T14:43:49.575Z,99549.19
2023-06-18T14:46:17.124Z,99564.25
2023-06-18T14:48:44.603Z,99560.81
2023-06-18T14:51:12.238Z,99559.25
2023-06-18T14:53:40.075Z,99566.56
2023-06-18T14:56:07.496Z,99552.22
2023-06-18T14:58:35.225Z,99563.69
2023-06-18T15:01:02.695Z,99561.41
2023-06-18T15:03:30.199Z,99556.66
2023-06-18T15:05:58.258Z,99559.81
2023-06-18T15:08:25.685Z,99556.22
2023-06-18T15:10:53.046Z,99550.25
2023-06-18T15:13:22.138Z,99552.91
2023-06-18T15:15:49.646Z,99538.00
2023-06-18T15:18:17.061Z,99544.03
2023-06-18T15:20:44.783Z,99550.03
2023-06-18T15:23:12.215Z,99542.25
2023-06-18T15:25:40.581Z,99541.59
2023-06-18T15:28:08.228Z,99543.72
2023-06-18T15:30:35.662Z,99535.03
2023-06-18T15:33:03.105Z,99539.44
2023-06-18T15:35:30.912Z,99532.41
2023-06-18T15:38:01.433Z,99544.53
2023-06-18T15:40:29.017Z,99530.41
2023-06-18T15:42:56.743Z,99537.66
2023-06-18T15:45:24.363Z,99539.81
2023-06-18T15:47:52.228Z,99534.31
2023-06-18T15:50:19.935Z,99543.28
2023-06-18T15:52:47.330Z,99546.19
2023-06-18T15:55:14.724Z,99538.78
2023-06-18T15:57:42.391Z,99540.28
2023-06-18T16:00:10.499Z,99536.50
2023-06-18T16:02:38.388Z,99535.00
2023-06-18T16:05:09.827Z,99533.31
2023-06-18T16:07:39.800Z,99536.19
2023-06-18T16:10:07.757Z,99537.16
2023-06-18T16:12:35.161Z,99543.53
2023-06-18T16:15:03.378Z,99535.94
2023-06-18T16:17:31.662Z,99531.38
2023-06-18T16:19:59.757Z,99534.25
2023-06-18T16:22:28.025Z,99537.00
2023-06-18T16:24:55.700Z,99537.88
2023-06-18T16:27:23.214Z,99543.94
2023-06-18T16:29:50.916Z,99545.88
2023-06-18T16:32:18.329Z,99541.25
2023-06-18T16:34:45.828Z,99545.44
2023-06-18T16:37:13.599Z,99547.50
2023-06-18T16:39:41.079Z,99551.84
2023-06-18T16:42:08.558Z,99556.66
2023-06-18T16:44:37.090Z,99551.50
2023-06-18T16:47:04.745Z,99548.41
2023-06-18T16:49:32.153Z,99557.44
2023-06-18T16:52:01.249Z,99555.34
2023-06-18T16:54:28.880Z,99564.03
2023-06-18T16:56:56.270Z,99547.69
2023-06-18T16:59:26.726Z,99555.25
2023-06-18T17:01:54.168Z,99559.13
2023-06-18T17:04:21.727Z,99555.34
2023-06-18T17:06:49.420Z,99569.34
2023-06-18T17:09:17.776Z,99557.84
2023-06-18T17:11:45.607Z,99558.41
2023-06-18T17:14:13.358Z,99553.78
2023-06-18T17:16:40.762Z,99559.59
2023-06-18T17:19:08.211Z,99570.50
2023-06-18T17:21:36.205Z,99563.19
2023-06-18T17:24:03.754Z,99558.91
2023-06-18T17:26:32.678Z,99553.16
2023-06-18T17:29:00.527Z,99566.78
2023-06-18T17:31:27.983Z,99560.88
2023-06-18T17:33:55.805Z,99558.53
2023-06-18T17:36:23.470Z,99560.44
2023-06-18T17:38:52.005Z,99566.28
2023-06-18T17:41:19.657Z,99562.62
2023-06-18T17:43:47.372Z,99566.41
2023-06-18T17:46:15.585Z,99559.25
2023-06-18T17:48:46.121Z,99565.63
2023-06-18T17:51:13.825Z,99568.50
2023-06-18T17:53:45.947Z,99572.84
2023-06-18T17:56:13.802Z,99568.50
2023-06-18T17:58:41.190Z,99568.69
2023-06-18T18:01:08.706Z,99568.50
2023-06-18T18:03:36.612Z,99574.87
2023-06-18T18:06:04.379Z,99583.31
2023-06-18T18:08:31.759Z,99570.81
2023-06-18T18:10:59.410Z,99586.72
2023-06-18T18:13:27.850Z,99588.03
2023-06-18T18:15:57.364Z,99591.13
2023-06-18T18:18:25.148Z,99591.59
2023-06-18T18:20:52.759Z,99591.94
2023-06-18T18:23:20.168Z,99599.00
2023-06-18T18:25:47.908Z,99593.75
2023-06-18T18:28:15.418Z,99600.31
2023-06-18T18:30:43.003Z,99599.34
2023-06-18T18:33:11.614Z,99602.00
2023-06-18T18:35:39.171Z,99603.91
2023-06-18T18:38:06.635Z,99609.69
2023-06-18T18:40:34.256Z,99613.41
2023-06-18T18:43:01.616Z,99612.41
2023-06-18T18:45:29.027Z,99622.75
2023-06-18T18:47:56.858Z,99627.66
2023-06-18T18:50:24.611Z,99622.50
2023-06-18T18:52:52.242Z,99626.50
2023-06-18T18:55:19.923Z,99635.56
2023-06-18T18:57:47.332Z,99627.97
2023-06-18T19:00:15.119Z,99636.38
2023-06-18T19:02:42.846Z,99638.28
2023-06-18T19:05:10.341Z,99648.09
2023-06-18T19:07:37.809Z,99642.09
2023-06-18T19:10:07.234Z,99647.78
2023-06-18T19:12:34.732Z,99648.88
2023-06-18T19:15:02.739Z,99648.50
2023-06-18T19:17:32.511Z,99651.59
2023-06-18T19:19:59.908Z,99656.50
2023-06-18T19:22:32.908Z,99656.41
2023-06-18T19:25:00.684Z,99656.16
2023-06-18T19:27:28.191Z,99661.06
2023-06-18T19:29:55.669Z,99676.19
2023-06-18T19:32:23.889Z,99670.19
2023-06-18T19:34:52.200Z,99672.06
2023-06-18T19:37:19.824Z,99677.62
2023-06-18T19:39:49.174Z,99675.28
2023-06-18T19:42:19.922Z,99680.03
2023-06-18T19:44:47.714Z,99670.03
2023-06-18T19:47:15.147Z,99677.38
2023-06-18T19:49:42.541Z,99674.66
2023-06-18T19:52:10.254Z,99685.31
2023-06-18T19:54:40.624Z,99682.31
2023-06-18T19:57:08.549Z,99692.50
2023-06-18T19:59:36.234Z,99699.38
2023-06-18T20:02:03.822Z,99693.75
2023-06-18T20:04:31.542Z,99694.94
2023-06-18T20:06:58.992Z,99702.19
2023-06-18T20:09:26.570Z,99708.38
2023-06-18T20:11:54.256Z,99701.44
2023-06-18T20:14:21.731Z,99700.81
2023-06-18T20:16:49.164Z,99699.06
2023-06-18T20:19:16.833Z,99698.50
2023-06-18T20:21:44.217Z,99704.91
2023-06-18T20:24:11.622Z,99705.19
2023-06-18T20:26:39.334Z,99706.75
2023-06-18T20:29:06.758Z,99709.78
2023-06-18T20:31:34.202Z,99709.25
2023-06-18T20:34:01.977Z,99708.47
2023-06-18T20:36:29.893Z,99711.16
2023-06-18T20:38:59.985Z,99700.00
2023-06-18T20:41:27.917Z,99708.09
2023-06-18T20:43:55.340Z,99704.44
2023-06-18T20:46:24.341Z,99708.78
2023-06-18T20:48:52.066Z,99706.75
2023-06-18T20:51:19.469Z,99705.63
2023-06-18T20:53:46.901Z,99705.59
2023-06-18T20:56:14.590Z,99707.53
2023-06-18T20:58:42.045Z,99709.84
2023-06-18T21:01:09.554Z,99711.59
2023-06-18T21:03:42.601Z,99712.66
2023-06-18T21:06:12.373Z,99705.81
2023-06-18T21:08:40.646Z,99708.91
2023-06-18T21:11:08.064Z,99709.25
2023-06-18T21:13:35.517Z,99705.94
2023-06-18T21:16:03.237Z,99702.72
2023-06-18T21:18:30.640Z,99709.44
2023-06-18T21:20:58.017Z,99704.69
2023-06-18T21:23:25.688Z,99707.53
2023-06-18T21:25:53.160Z,99712.94
2023-06-18T21:28:20.923Z,99702.91
2023-06-18T21:30:48.610Z,99700.97
2023-06-18T21:33:16.025Z,99699.47
2023-06-18T21:38:10.997Z,99702.16
2023-06-18T21:40:38.386Z,99693.34
2023-06-18T21:43:05.837Z,99698.81
2023-06-18T21:45:34.030Z,99701.94
2023-06-18T21:48:01.514Z,99709.53
2023-06-18T21:50:29.089Z,99707.81
2023-06-18T21:52:56.755Z,99708.16
2023-06-18T21:55:24.133Z,99719.34
2023-06-18T21:57:51.672Z,99715.25
2023-06-18T22:00:19.357Z,99709.22
2023-06-18T22:02:48.573Z,99719.69
2023-06-18T22:05:16.024Z,99709.34
2023-06-18T22:07:43.454Z,99715.91
2023-06-18T22:10:11.781Z,99713.56
2023-06-18T22:12:39.200Z,99710.28
2023-06-18T22:15:07.598Z,99711.16
2023-06-18T22:17:35.532Z,99712.63
2023-06-18T22:20:03.752Z,99716.31
2023-06-18T22:22:31.870Z,99715.44
2023-06-18T22:24:59.549Z,99710.59
2023-06-18T22:27:27.143Z,99711.31
2023-06-18T22:29:54.586Z,99714.28
2023-06-18T22:32:22.537Z,99715.09
2023-06-18T22:34:50.068Z,99712.16
2023-06-18T22:37:17.615Z,99707.34
2023-06-18T22:39:45.286Z,99711.91
2023-06-18T22:42:12.704Z,99712.53
2023-06-18T22:44:40.094Z,99708.72
2023-06-18T22:47:07.821Z,99716.50
2023-06-18T22:49:35.216Z,99714.00
2023-06-18T22:52:02.626Z,99715.50
2023-06-18T22:54:30.236Z,99710.59
2023-06-18T22:56:57.716Z,99709.69
2023-06-18T22:59:25.149Z,99709.28
2023-06-18T23:01:52.825Z,99707.59
2023-06-18T23:04:20.373Z,99713.78
2023-06-18T23:06:47.774Z,99710.91
2023-06-18T23:09:15.546Z,99722.88
2023-06-18T23:11:42.907Z,99721.66
2023-06-18T23:14:10.351Z,99709.16
2023-06-18T23:16:38.043Z,99711.19
2023-06-18T23:19:07.162Z,99708.59
2023-06-18T23:21:46.738Z,99713.44
2023-06-18T23:24:15.753Z,99708.31
2023-06-18T23:26:43.255Z,99701.28
2023-06-18T23:29:10.942Z,99709.63
2023-06-18T23:31:41.723Z,99705.22
2023-06-18T23:34:09.193Z,99706.28
2023-06-18T23:36:37.089Z,99706.28
2023-06-18T23:39:05.217Z,99705.69
2023-06-18T23:41:32.744Z,99704.50
2023-06-18T23:44:00.208Z,99705.97
2023-06-18T23:46:27.908Z,99705.75
2023-06-18T23:48:55.403Z,99693.00
2023-06-18T23:51:22.848Z,99697.00
2023-06-18T23:53:50.535Z,99697.66
2023-06-18T23:56:17.899Z,99695.34
2023-06-18T23:58:45.331Z,99701.72
